sensor_id;sensor_type;location;lat;lon;timestamp;P1;durP1;ratioP1;P2;durP2;ratioP2
15476;SDS011;7840;42.702;23.296;2022-11-14T00:01:19;93.83;;;63.50;;
15476;SDS011;7840;42.702;23.296;2022-11-14T00:03:51;94.53;;;61.10;;
15476;SDS011;7840;42.702;23.296;2022-11-14T00:06:21;97.93;;;66.20;;
15476;SDS011;7840;42.702;23.296;2022-11-14T00:08:49;87.67;;;62.70;;
15476;SDS011;7840;42.702;23.296;2022-11-14T00:11:17;86.03;;;58.60;;
15476;SDS011;7840;42.702;23.296;2022-11-14T00:13:44;87.83;;;58.70;;
15476;SDS011;7840;42.702;23.296;2022-11-14T00:16:13;80.77;;;54.30;;
15476;SDS011;7840;42.702;23.296;2022-11-14T00:18:41;83.00;;;57.03;;
15476;SDS011;7840;42.702;23.296;2022-11-14T00:21:08;80.73;;;54.23;;
15476;SDS011;7840;42.702;23.296;2022-11-14T00:23:36;82.37;;;54.87;;
15476;SDS011;7840;42.702;23.296;2022-11-14T00:26:04;87.17;;;55.10;;
15476;SDS011;7840;42.702;23.296;2022-11-14T00:28:32;76.00;;;51.77;;
15476;SDS011;7840;42.702;23.296;2022-11-14T00:31:00;76.30;;;50.90;;
15476;SDS011;7840;42.702;23.296;2022-11-14T00:33:41;75.60;;;51.40;;
15476;SDS011;7840;42.702;23.296;2022-11-14T00:36:09;79.83;;;51.57;;
15476;SDS011;7840;42.702;23.296;2022-11-14T00:41:14;69.53;;;49.33;;
15476;SDS011;7840;42.702;23.296;2022-11-14T00:43:42;79.60;;;51.83;;
15476;SDS011;7840;42.702;23.296;2022-11-14T00:46:10;79.17;;;51.83;;
15476;SDS011;7840;42.702;23.296;2022-11-14T00:48:39;71.43;;;50.50;;
15476;SDS011;7840;42.702;23.296;2022-11-14T00:51:09;72.73;;;50.27;;
15476;SDS011;7840;42.702;23.296;2022-11-14T00:53:37;72.33;;;49.20;;
15476;SDS011;7840;42.702;23.296;2022-11-14T00:56:05;77.10;;;50.73;;
15476;SDS011;7840;42.702;23.296;2022-11-14T00:58:33;78.17;;;51.73;;
15476;SDS011;7840;42.702;23.296;2022-11-14T01:01:01;71.33;;;49.13;;
15476;SDS011;7840;42.702;23.296;2022-11-14T01:03:29;72.83;;;49.50;;
15476;SDS011;7840;42.702;23.296;2022-11-14T01:06:04;75.67;;;50.37;;
15476;SDS011;7840;42.702;23.296;2022-11-14T01:08:45;81.70;;;53.10;;
15476;SDS011;7840;42.702;23.296;2022-11-14T01:11:17;85.87;;;54.20;;
15476;SDS011;7840;42.702;23.296;2022-11-14T01:13:46;83.30;;;54.60;;
15476;SDS011;7840;42.702;23.296;2022-11-14T01:16:14;76.73;;;51.83;;
15476;SDS011;7840;42.702;23.296;2022-11-14T01:18:41;75.47;;;50.73;;
15476;SDS011;7840;42.702;23.296;2022-11-14T01:21:13;79.77;;;51.40;;
15476;SDS011;7840;42.702;23.296;2022-11-14T01:23:42;69.57;;;47.77;;
15476;SDS011;7840;42.702;23.296;2022-11-14T01:26:27;79.33;;;49.97;;
15476;SDS011;7840;42.702;23.296;2022-11-14T01:28:55;80.57;;;49.97;;
15476;SDS011;7840;42.702;23.296;2022-11-14T01:31:25;74.00;;;48.93;;
15476;SDS011;7840;42.702;23.296;2022-11-14T01:33:53;78.83;;;50.30;;
15476;SDS011;7840;42.702;23.296;2022-11-14T01:36:33;74.00;;;51.53;;
15476;SDS011;7840;42.702;23.296;2022-11-14T01:39:01;88.13;;;54.13;;
15476;SDS011;7840;42.702;23.296;2022-11-14T01:41:29;80.37;;;53.23;;
15476;SDS011;7840;42.702;23.296;2022-11-14T01:43:56;83.63;;;54.13;;
15476;SDS011;7840;42.702;23.296;2022-11-14T01:46:24;84.03;;;54.83;;
15476;SDS011;7840;42.702;23.296;2022-11-14T01:48:55;90.33;;;54.00;;
15476;SDS011;7840;42.702;23.296;2022-11-14T01:51:27;88.97;;;55.50;;
15476;SDS011;7840;42.702;23.296;2022-11-14T01:54:12;84.37;;;52.87;;
15476;SDS011;7840;42.702;23.296;2022-11-14T01:56:45;85.93;;;52.23;;
15476;SDS011;7840;42.702;23.296;2022-11-14T01:59:17;86.77;;;54.67;;
15476;SDS011;7840;42.702;23.296;2022-11-14T02:01:51;85.90;;;53.47;;
15476;SDS011;7840;42.702;23.296;2022-11-14T02:04:22;80.83;;;52.23;;
15476;SDS011;7840;42.702;23.296;2022-11-14T02:06:58;82.37;;;51.40;;
15476;SDS011;7840;42.702;23.296;2022-11-14T02:09:27;88.07;;;53.77;;
15476;SDS011;7840;42.702;23.296;2022-11-14T02:11:59;89.43;;;54.77;;
15476;SDS011;7840;42.702;23.296;2022-11-14T02:14:30;83.50;;;50.50;;
15476;SDS011;7840;42.702;23.296;2022-11-14T02:17:00;82.07;;;51.70;;
15476;SDS011;7840;42.702;23.296;2022-11-14T02:19:39;75.07;;;47.97;;
15476;SDS011;7840;42.702;23.296;2022-11-14T02:22:09;77.43;;;48.10;;
15476;SDS011;7840;42.702;23.296;2022-11-14T02:24:37;83.27;;;48.40;;
15476;SDS011;7840;42.702;23.296;2022-11-14T02:27:05;80.13;;;49.20;;
15476;SDS011;7840;42.702;23.296;2022-11-14T02:29:34;78.13;;;48.10;;
15476;SDS011;7840;42.702;23.296;2022-11-14T02:32:02;70.97;;;45.97;;
15476;SDS011;7840;42.702;23.296;2022-11-14T02:34:30;72.97;;;46.47;;
15476;SDS011;7840;42.702;23.296;2022-11-14T02:37:14;74.10;;;45.53;;
15476;SDS011;7840;42.702;23.296;2022-11-14T02:39:42;66.67;;;45.40;;
15476;SDS011;7840;42.702;23.296;2022-11-14T02:42:10;68.07;;;44.90;;
15476;SDS011;7840;42.702;23.296;2022-11-14T02:44:38;69.40;;;44.40;;
15476;SDS011;7840;42.702;23.296;2022-11-14T02:47:08;69.83;;;43.23;;
15476;SDS011;7840;42.702;23.296;2022-11-14T02:49:38;72.43;;;43.37;;
15476;SDS011;7840;42.702;23.296;2022-11-14T02:52:06;72.10;;;45.63;;
15476;SDS011;7840;42.702;23.296;2022-11-14T02:54:35;70.53;;;45.93;;
15476;SDS011;7840;42.702;23.296;2022-11-14T02:57:03;77.70;;;45.93;;
15476;SDS011;7840;42.702;23.296;2022-11-14T02:59:31;70.53;;;44.93;;
15476;SDS011;7840;42.702;23.296;2022-11-14T03:02:01;69.27;;;44.87;;
15476;SDS011;7840;42.702;23.296;2022-11-14T03:04:33;68.17;;;43.27;;
15476;SDS011;7840;42.702;23.296;2022-11-14T03:07:10;64.20;;;41.30;;
15476;SDS011;7840;42.702;23.296;2022-11-14T03:09:39;60.87;;;40.80;;
15476;SDS011;7840;42.702;23.296;2022-11-14T03:12:07;58.03;;;36.90;;
15476;SDS011;7840;42.702;23.296;2022-11-14T03:14:35;62.07;;;37.53;;
15476;SDS011;7840;42.702;23.296;2022-11-14T03:17:02;69.60;;;38.03;;
15476;SDS011;7840;42.702;23.296;2022-11-14T03:19:30;52.13;;;35.10;;
15476;SDS011;7840;42.702;23.296;2022-11-14T03:21:57;61.37;;;38.60;;
15476;SDS011;7840;42.702;23.296;2022-11-14T03:24:25;58.70;;;39.00;;
15476;SDS011;7840;42.702;23.296;2022-11-14T03:26:54;66.03;;;41.40;;
15476;SDS011;7840;42.702;23.296;2022-11-14T03:29:22;64.57;;;39.23;;
15476;SDS011;7840;42.702;23.296;2022-11-14T03:31:49;64.73;;;41.20;;
15476;SDS011;7840;42.702;23.296;2022-11-14T03:34:17;70.63;;;40.47;;
15476;SDS011;7840;42.702;23.296;2022-11-14T03:36:44;66.43;;;39.23;;
15476;SDS011;7840;42.702;23.296;2022-11-14T03:39:12;65.10;;;39.13;;
15476;SDS011;7840;42.702;23.296;2022-11-14T03:41:40;57.80;;;36.57;;
15476;SDS011;7840;42.702;23.296;2022-11-14T03:44:09;63.00;;;38.27;;
15476;SDS011;7840;42.702;23.296;2022-11-14T03:46:39;67.27;;;38.03;;
15476;SDS011;7840;42.702;23.296;2022-11-14T03:49:07;66.67;;;38.50;;
15476;SDS011;7840;42.702;23.296;2022-11-14T03:51:35;58.37;;;35.80;;
15476;SDS011;7840;42.702;23.296;2022-11-14T03:54:02;62.27;;;36.97;;
15476;SDS011;7840;42.702;23.296;2022-11-14T03:56:30;60.50;;;37.83;;
15476;SDS011;7840;42.702;23.296;2022-11-14T03:59:05;61.43;;;37.70;;
15476;SDS011;7840;42.702;23.296;2022-11-14T04:01:37;61.33;;;38.30;;
15476;SDS011;7840;42.702;23.296;2022-11-14T04:04:13;63.13;;;36.73;;
15476;SDS011;7840;42.702;23.296;2022-11-14T04:07:16;58.70;;;38.53;;
15476;SDS011;7840;42.702;23.296;2022-11-14T04:09:44;61.37;;;38.50;;
15476;SDS011;7840;42.702;23.296;2022-11-14T04:12:12;59.90;;;36.53;;
15476;SDS011;7840;42.702;23.296;2022-11-14T04:14:40;62.93;;;37.67;;
15476;SDS011;7840;42.702;23.296;2022-11-14T04:17:07;61.63;;;37.77;;
15476;SDS011;7840;42.702;23.296;2022-11-14T04:19:35;63.07;;;38.30;;
15476;SDS011;7840;42.702;23.296;2022-11-14T04:22:03;54.77;;;36.17;;
15476;SDS011;7840;42.702;23.296;2022-11-14T04:24:33;64.67;;;37.10;;
15476;SDS011;7840;42.702;23.296;2022-11-14T04:27:00;54.77;;;34.97;;
15476;SDS011;7840;42.702;23.296;2022-11-14T04:29:28;61.60;;;37.50;;
15476;SDS011;7840;42.702;23.296;2022-11-14T04:31:56;57.77;;;36.83;;
15476;SDS011;7840;42.702;23.296;2022-11-14T04:34:23;66.47;;;38.57;;
15476;SDS011;7840;42.702;23.296;2022-11-14T04:36:51;65.07;;;38.67;;
15476;SDS011;7840;42.702;23.296;2022-11-14T04:39:19;67.33;;;39.53;;
15476;SDS011;7840;42.702;23.296;2022-11-14T04:41:48;79.17;;;40.60;;
15476;SDS011;7840;42.702;23.296;2022-11-14T04:44:15;75.73;;;40.93;;
15476;SDS011;7840;42.702;23.296;2022-11-14T04:46:43;76.43;;;43.57;;
15476;SDS011;7840;42.702;23.296;2022-11-14T04:49:10;88.10;;;43.50;;
15476;SDS011;7840;42.702;23.296;2022-11-14T04:51:38;84.83;;;44.90;;
15476;SDS011;7840;42.702;23.296;2022-11-14T04:54:06;82.17;;;44.70;;
15476;SDS011;7840;42.702;23.296;2022-11-14T04:56:33;94.53;;;47.50;;
15476;SDS011;7840;42.702;23.296;2022-11-14T04:59:03;97.60;;;47.23;;
15476;SDS011;7840;42.702;23.296;2022-11-14T05:01:31;95.80;;;46.57;;
15476;SDS011;7840;42.702;23.296;2022-11-14T05:03:59;93.33;;;45.90;;
15476;SDS011;7840;42.702;23.296;2022-11-14T05:06:26;101.60;;;47.07;;
15476;SDS011;7840;42.702;23.296;2022-11-14T05:08:54;96.73;;;47.13;;
15476;SDS011;7840;42.702;23.296;2022-11-14T05:11:22;96.93;;;47.23;;
15476;SDS011;7840;42.702;23.296;2022-11-14T05:13:50;93.37;;;46.23;;
15476;SDS011;7840;42.702;23.296;2022-11-14T05:16:19;101.10;;;46.93;;
15476;SDS011;7840;42.702;23.296;2022-11-14T05:18:46;169.57;;;50.03;;
15476;SDS011;7840;42.702;23.296;2022-11-14T05:21:14;111.83;;;46.63;;
15476;SDS011;7840;42.702;23.296;2022-11-14T05:23:41;136.50;;;45.93;;
15476;SDS011;7840;42.702;23.296;2022-11-14T05:26:14;130.07;;;47.60;;
15476;SDS011;7840;42.702;23.296;2022-11-14T05:28:42;138.93;;;51.87;;
15476;SDS011;7840;42.702;23.296;2022-11-14T05:31:10;144.20;;;52.37;;
15476;SDS011;7840;42.702;23.296;2022-11-14T05:33:43;123.60;;;47.63;;
15476;SDS011;7840;42.702;23.296;2022-11-14T05:36:11;140.33;;;52.00;;
15476;SDS011;7840;42.702;23.296;2022-11-14T05:38:40;151.00;;;49.23;;
15476;SDS011;7840;42.702;23.296;2022-11-14T05:41:09;144.97;;;48.90;;
15476;SDS011;7840;42.702;23.296;2022-11-14T05:43:38;235.80;;;55.70;;
15476;SDS011;7840;42.702;23.296;2022-11-14T05:46:06;225.10;;;56.00;;
15476;SDS011;7840;42.702;23.296;2022-11-14T05:48:36;160.87;;;51.50;;
15476;SDS011;7840;42.702;23.296;2022-11-14T05:51:06;153.43;;;51.27;;
15476;SDS011;7840;42.702;23.296;2022-11-14T05:53:36;163.87;;;54.87;;
15476;SDS011;7840;42.702;23.296;2022-11-14T05:56:04;184.73;;;53.90;;
15476;SDS011;7840;42.702;23.296;2022-11-14T05:58:35;180.90;;;55.07;;
15476;SDS011;7840;42.702;23.296;2022-11-14T06:01:06;193.30;;;55.87;;
15476;SDS011;7840;42.702;23.296;2022-11-14T06:03:39;234.20;;;57.87;;
15476;SDS011;7840;42.702;23.296;2022-11-14T06:06:23;193.47;;;57.57;;
15476;SDS011;7840;42.702;23.296;2022-11-14T06:09:08;152.00;;;52.30;;
15476;SDS011;7840;42.702;23.296;2022-11-14T06:11:38;204.00;;;58.93;;
15476;SDS011;7840;42.702;23.296;2022-11-14T06:14:06;169.67;;;55.90;;
15476;SDS011;7840;42.702;23.296;2022-11-14T06:16:34;209.70;;;58.60;;
15476;SDS011;7840;42.702;23.296;2022-11-14T06:19:01;219.37;;;59.47;;
15476;SDS011;7840;42.702;23.296;2022-11-14T06:21:43;176.93;;;56.63;;
15476;SDS011;7840;42.702;23.296;2022-11-14T06:24:11;235.63;;;65.93;;
15476;SDS011;7840;42.702;23.296;2022-11-14T06:26:41;211.50;;;57.57;;
15476;SDS011;7840;42.702;23.296;2022-11-14T06:29:09;186.73;;;58.00;;
15476;SDS011;7840;42.702;23.296;2022-11-14T06:31:44;210.93;;;59.83;;
15476;SDS011;7840;42.702;23.296;2022-11-14T06:34:14;213.97;;;64.83;;
15476;SDS011;7840;42.702;23.296;2022-11-14T06:36:46;214.93;;;59.60;;
15476;SDS011;7840;42.702;23.296;2022-11-14T06:39:15;183.90;;;60.37;;
15476;SDS011;7840;42.702;23.296;2022-11-14T06:41:44;190.50;;;59.87;;
15476;SDS011;7840;42.702;23.296;2022-11-14T06:44:12;182.33;;;62.13;;
15476;SDS011;7840;42.702;23.296;2022-11-14T06:46:40;182.20;;;62.07;;
15476;SDS011;7840;42.702;23.296;2022-11-14T06:49:16;172.00;;;60.43;;
15476;SDS011;7840;42.702;23.296;2022-11-14T06:51:48;142.67;;;60.53;;
15476;SDS011;7840;42.702;23.296;2022-11-14T06:54:17;134.90;;;59.20;;
15476;SDS011;7840;42.702;23.296;2022-11-14T06:56:48;166.97;;;61.03;;
15476;SDS011;7840;42.702;23.296;2022-11-14T06:59:19;167.00;;;60.03;;
15476;SDS011;7840;42.702;23.296;2022-11-14T07:02:00;176.23;;;59.70;;
15476;SDS011;7840;42.702;23.296;2022-11-14T07:04:34;142.77;;;58.53;;
15476;SDS011;7840;42.702;23.296;2022-11-14T07:07:07;128.87;;;57.97;;
15476;SDS011;7840;42.702;23.296;2022-11-14T07:09:41;136.60;;;58.87;;
15476;SDS011;7840;42.702;23.296;2022-11-14T07:12:09;115.47;;;55.33;;
15476;SDS011;7840;42.702;23.296;2022-11-14T07:14:37;109.67;;;52.90;;
15476;SDS011;7840;42.702;23.296;2022-11-14T07:17:21;89.53;;;47.47;;
15476;SDS011;7840;42.702;23.296;2022-11-14T07:20:16;91.13;;;43.97;;
15476;SDS011;7840;42.702;23.296;2022-11-14T07:22:56;68.60;;;40.87;;
15476;SDS011;7840;42.702;23.296;2022-11-14T07:25:26;69.30;;;41.93;;
15476;SDS011;7840;42.702;23.296;2022-11-14T07:28:07;98.80;;;42.23;;
15476;SDS011;7840;42.702;23.296;2022-11-14T07:30:40;69.03;;;40.43;;
15476;SDS011;7840;42.702;23.296;2022-11-14T07:33:15;68.50;;;40.07;;
15476;SDS011;7840;42.702;23.296;2022-11-14T07:35:46;79.73;;;43.27;;
15476;SDS011;7840;42.702;23.296;2022-11-14T07:38:18;103.13;;;44.80;;
15476;SDS011;7840;42.702;23.296;2022-11-14T07:40:51;76.83;;;42.40;;
15476;SDS011;7840;42.702;23.296;2022-11-14T07:43:22;110.87;;;51.20;;
15476;SDS011;7840;42.702;23.296;2022-11-14T07:45:53;139.90;;;53.20;;
15476;SDS011;7840;42.702;23.296;2022-11-14T07:48:27;112.40;;;51.17;;
15476;SDS011;7840;42.702;23.296;2022-11-14T07:50:57;112.73;;;54.13;;
15476;SDS011;7840;42.702;23.296;2022-11-14T07:53:28;144.13;;;56.50;;
15476;SDS011;7840;42.702;23.296;2022-11-14T07:56:10;114.13;;;53.93;;
15476;SDS011;7840;42.702;23.296;2022-11-14T07:58:41;113.73;;;54.67;;
15476;SDS011;7840;42.702;23.296;2022-11-14T08:01:24;92.20;;;50.17;;
15476;SDS011;7840;42.702;23.296;2022-11-14T08:03:52;107.37;;;52.80;;
15476;SDS011;7840;42.702;23.296;2022-11-14T08:06:41;104.30;;;52.83;;
15476;SDS011;7840;42.702;23.296;2022-11-14T08:09:13;142.83;;;53.17;;
15476;SDS011;7840;42.702;23.296;2022-11-14T08:11:40;102.47;;;51.90;;
15476;SDS011;7840;42.702;23.296;2022-11-14T08:14:13;95.07;;;50.53;;
15476;SDS011;7840;42.702;23.296;2022-11-14T08:16:41;87.83;;;48.90;;
15476;SDS011;7840;42.702;23.296;2022-11-14T08:19:09;99.77;;;50.67;;
15476;SDS011;7840;42.702;23.296;2022-11-14T08:21:40;104.77;;;51.77;;
15476;SDS011;7840;42.702;23.296;2022-11-14T08:24:30;90.83;;;50.40;;
15476;SDS011;7840;42.702;23.296;2022-11-14T08:26:57;86.27;;;50.27;;
15476;SDS011;7840;42.702;23.296;2022-11-14T08:29:27;90.50;;;52.00;;
15476;SDS011;7840;42.702;23.296;2022-11-14T08:31:56;88.00;;;50.00;;
15476;SDS011;7840;42.702;23.296;2022-11-14T08:34:23;96.10;;;52.67;;
15476;SDS011;7840;42.702;23.296;2022-11-14T08:36:57;90.93;;;51.07;;
15476;SDS011;7840;42.702;23.296;2022-11-14T08:42:21;77.20;;;48.80;;
15476;SDS011;7840;42.702;23.296;2022-11-14T08:44:49;80.63;;;48.73;;
15476;SDS011;7840;42.702;23.296;2022-11-14T08:47:16;70.27;;;45.70;;
15476;SDS011;7840;42.702;23.296;2022-11-14T08:49:44;69.20;;;43.83;;
15476;SDS011;7840;42.702;23.296;2022-11-14T08:52:12;75.70;;;49.70;;
15476;SDS011;7840;42.702;23.296;2022-11-14T08:54:39;77.73;;;47.40;;
15476;SDS011;7840;42.702;23.296;2022-11-14T08:57:07;68.13;;;44.30;;
15476;SDS011;7840;42.702;23.296;2022-11-14T08:59:37;63.10;;;42.57;;
15476;SDS011;7840;42.702;23.296;2022-11-14T09:02:05;66.50;;;44.00;;
15476;SDS011;7840;42.702;23.296;2022-11-14T09:04:44;65.33;;;42.47;;
15476;SDS011;7840;42.702;23.296;2022-11-14T09:07:13;58.43;;;41.10;;
15476;SDS011;7840;42.702;23.296;2022-11-14T09:09:43;57.07;;;40.73;;
15476;SDS011;7840;42.702;23.296;2022-11-14T10:32:02;64.63;;;44.40;;
15476;SDS011;7840;42.702;23.296;2022-11-14T10:34:53;55.77;;;43.73;;
15476;SDS011;7840;42.702;23.296;2022-11-14T10:37:36;59.87;;;43.57;;
15476;SDS011;7840;42.702;23.296;2022-11-14T10:40:15;57.30;;;44.83;;
15476;SDS011;7840;42.702;23.296;2022-11-14T10:43:23;60.20;;;43.70;;
15476;SDS011;7840;42.702;23.296;2022-11-14T10:46:15;60.53;;;44.63;;
15476;SDS011;7840;42.702;23.296;2022-11-14T10:49:16;56.72;;;43.17;;
15476;SDS011;7840;42.702;23.296;2022-11-14T10:51:47;58.15;;;46.90;;
15476;SDS011;7840;42.702;23.296;2022-11-14T10:54:20;61.08;;;45.55;;
15476;SDS011;7840;42.702;23.296;2022-11-14T10:56:53;56.97;;;47.70;;
15476;SDS011;7840;42.702;23.296;2022-11-14T10:59:39;60.30;;;45.10;;
15476;SDS011;7840;42.702;23.296;2022-11-14T11:02:11;62.30;;;44.63;;
15476;SDS011;7840;42.702;23.296;2022-11-14T11:04:57;53.85;;;45.15;;
15476;SDS011;7840;42.702;23.296;2022-11-14T11:07:43;53.55;;;43.88;;
15476;SDS011;7840;42.702;23.296;2022-11-14T11:10:28;57.05;;;44.70;;
15476;SDS011;7840;42.702;23.296;2022-11-14T11:13:26;60.15;;;44.80;;
15476;SDS011;7840;42.702;23.296;2022-11-14T11:15:58;59.03;;;46.83;;
15476;SDS011;7840;42.702;23.296;2022-11-14T11:18:40;56.70;;;44.60;;
15476;SDS011;7840;42.702;23.296;2022-11-14T11:21:18;59.47;;;44.30;;
15476;SDS011;7840;42.702;23.296;2022-11-14T11:24:12;56.30;;;45.42;;
15476;SDS011;7840;42.702;23.296;2022-11-14T11:27:17;57.15;;;45.95;;
15476;SDS011;7840;42.702;23.296;2022-11-14T11:29:49;55.70;;;45.15;;
15476;SDS011;7840;42.702;23.296;2022-11-14T11:32:56;60.67;;;46.75;;
15476;SDS011;7840;42.702;23.296;2022-11-14T11:35:40;59.35;;;46.47;;
15476;SDS011;7840;42.702;23.296;2022-11-14T11:38:09;64.28;;;46.63;;
15476;SDS011;7840;42.702;23.296;2022-11-14T11:40:38;61.13;;;49.05;;
15476;SDS011;7840;42.702;23.296;2022-11-14T11:43:08;61.22;;;47.75;;
15476;SDS011;7840;42.702;23.296;2022-11-14T11:45:44;70.43;;;49.15;;
15476;SDS011;7840;42.702;23.296;2022-11-14T11:48:16;66.20;;;50.40;;
15476;SDS011;7840;42.702;23.296;2022-11-14T11:50:46;64.05;;;48.88;;
15476;SDS011;7840;42.702;23.296;2022-11-14T11:53:16;63.78;;;48.47;;
15476;SDS011;7840;42.702;23.296;2022-11-14T11:55:48;65.28;;;47.55;;
15476;SDS011;7840;42.702;23.296;2022-11-14T11:58:20;61.90;;;48.20;;
15476;SDS011;7840;42.702;23.296;2022-11-14T12:00:51;59.38;;;46.90;;
15476;SDS011;7840;42.702;23.296;2022-11-14T12:03:20;53.90;;;45.90;;
15476;SDS011;7840;42.702;23.296;2022-11-14T12:06:06;61.50;;;47.25;;
15476;SDS011;7840;42.702;23.296;2022-11-14T12:08:44;59.10;;;49.53;;
15476;SDS011;7840;42.702;23.296;2022-11-14T12:11:22;65.25;;;50.53;;
15476;SDS011;7840;42.702;23.296;2022-11-14T12:13:56;60.97;;;49.05;;
15476;SDS011;7840;42.702;23.296;2022-11-14T12:16:50;62.85;;;48.22;;
15476;SDS011;7840;42.702;23.296;2022-11-14T12:19:41;60.05;;;46.65;;
15476;SDS011;7840;42.702;23.296;2022-11-14T12:22:40;55.80;;;46.42;;
15476;SDS011;7840;42.702;23.296;2022-11-14T12:28:27;55.40;;;45.03;;
15476;SDS011;7840;42.702;23.296;2022-11-14T12:31:08;56.60;;;46.80;;
15476;SDS011;7840;42.702;23.296;2022-11-14T12:33:42;55.60;;;47.40;;
15476;SDS011;7840;42.702;23.296;2022-11-14T12:36:16;58.03;;;47.38;;
15476;SDS011;7840;42.702;23.296;2022-11-14T12:38:45;57.08;;;47.58;;
15476;SDS011;7840;42.702;23.296;2022-11-14T12:41:22;60.58;;;46.90;;
15476;SDS011;7840;42.702;23.296;2022-11-14T12:44:08;54.78;;;46.25;;
15476;SDS011;7840;42.702;23.296;2022-11-14T12:52:43;59.20;;;45.45;;
15476;SDS011;7840;42.702;23.296;2022-11-14T12:58:41;52.92;;;44.97;;
15476;SDS011;7840;42.702;23.296;2022-11-14T13:01:35;59.38;;;46.95;;
15476;SDS011;7840;42.702;23.296;2022-11-14T13:04:23;57.33;;;44.60;;
15476;SDS011;7840;42.702;23.296;2022-11-14T13:07:14;59.67;;;46.10;;
15476;SDS011;7840;42.702;23.296;2022-11-14T13:09:58;62.30;;;47.58;;
15476;SDS011;7840;42.702;23.296;2022-11-14T13:12:37;55.08;;;46.30;;
15476;SDS011;7840;42.702;23.296;2022-11-14T13:18:33;60.47;;;47.33;;
15476;SDS011;7840;42.702;23.296;2022-11-14T13:21:34;56.17;;;46.10;;
15476;SDS011;7840;42.702;23.296;2022-11-14T13:24:12;54.72;;;46.45;;
15476;SDS011;7840;42.702;23.296;2022-11-14T13:26:48;53.88;;;46.42;;
15476;SDS011;7840;42.702;23.296;2022-11-14T13:38:07;52.08;;;45.97;;
15476;SDS011;7840;42.702;23.296;2022-11-14T13:40:59;57.53;;;46.22;;
15476;SDS011;7840;42.702;23.296;2022-11-14T13:43:43;52.80;;;47.03;;
15476;SDS011;7840;42.702;23.296;2022-11-14T13:46:33;55.17;;;48.33;;
15476;SDS011;7840;42.702;23.296;2022-11-14T13:49:19;53.40;;;47.47;;
15476;SDS011;7840;42.702;23.296;2022-11-14T13:51:58;56.05;;;48.03;;
15476;SDS011;7840;42.702;23.296;2022-11-14T13:54:27;56.67;;;50.50;;
15476;SDS011;7840;42.702;23.296;2022-11-14T13:56:58;58.97;;;50.17;;
15476;SDS011;7840;42.702;23.296;2022-11-14T13:59:36;61.42;;;50.92;;
15476;SDS011;7840;42.702;23.296;2022-11-14T14:05:23;65.18;;;51.67;;
15476;SDS011;7840;42.702;23.296;2022-11-14T14:08:01;63.05;;;51.22;;
15476;SDS011;7840;42.702;23.296;2022-11-14T14:10:42;61.92;;;50.85;;
15476;SDS011;7840;42.702;23.296;2022-11-14T14:13:40;68.22;;;52.45;;
15476;SDS011;7840;42.702;23.296;2022-11-14T14:16:21;73.30;;;53.30;;
15476;SDS011;7840;42.702;23.296;2022-11-14T14:18:57;63.72;;;53.38;;
15476;SDS011;7840;42.702;23.296;2022-11-14T14:21:54;68.50;;;57.40;;
15476;SDS011;7840;42.702;23.296;2022-11-14T14:24:45;70.90;;;58.22;;
15476;SDS011;7840;42.702;23.296;2022-11-14T14:27:22;79.35;;;58.42;;
15476;SDS011;7840;42.702;23.296;2022-11-14T14:30:21;74.78;;;59.30;;
15476;SDS011;7840;42.702;23.296;2022-11-14T14:33:08;83.78;;;57.47;;
15476;SDS011;7840;42.702;23.296;2022-11-14T14:35:48;74.68;;;56.35;;
15476;SDS011;7840;42.702;23.296;2022-11-14T14:38:21;71.88;;;54.83;;
15476;SDS011;7840;42.702;23.296;2022-11-14T14:40:51;77.75;;;57.03;;
15476;SDS011;7840;42.702;23.296;2022-11-14T14:43:23;79.82;;;55.38;;
15476;SDS011;7840;42.702;23.296;2022-11-14T14:45:54;77.00;;;56.75;;
15476;SDS011;7840;42.702;23.296;2022-11-14T14:48:23;86.63;;;58.60;;
15476;SDS011;7840;42.702;23.296;2022-11-14T14:50:53;76.10;;;57.67;;
15476;SDS011;7840;42.702;23.296;2022-11-14T14:53:53;88.82;;;59.50;;
15476;SDS011;7840;42.702;23.296;2022-11-14T14:56:21;87.50;;;60.33;;
15476;SDS011;7840;42.702;23.296;2022-11-14T14:58:50;98.35;;;61.95;;
15476;SDS011;7840;42.702;23.296;2022-11-14T15:01:18;133.13;;;66.03;;
15476;SDS011;7840;42.702;23.296;2022-11-14T15:03:50;102.43;;;62.63;;
15476;SDS011;7840;42.702;23.296;2022-11-14T15:06:23;90.73;;;63.37;;
15476;SDS011;7840;42.702;23.296;2022-11-14T15:08:58;95.83;;;65.90;;
15476;SDS011;7840;42.702;23.296;2022-11-14T15:11:27;94.07;;;64.70;;
15476;SDS011;7840;42.702;23.296;2022-11-14T15:13:56;101.33;;;67.80;;
15476;SDS011;7840;42.702;23.296;2022-11-14T15:16:28;98.17;;;63.83;;
15476;SDS011;7840;42.702;23.296;2022-11-14T15:18:59;118.20;;;73.00;;
15476;SDS011;7840;42.702;23.296;2022-11-14T15:22:19;103.20;;;69.53;;
15476;SDS011;7840;42.702;23.296;2022-11-14T15:25:14;101.37;;;65.90;;
15476;SDS011;7840;42.702;23.296;2022-11-14T15:27:46;106.37;;;72.47;;
15476;SDS011;7840;42.702;23.296;2022-11-14T15:30:26;94.87;;;62.50;;
15476;SDS011;7840;42.702;23.296;2022-11-14T15:33:03;92.47;;;58.40;;
15476;SDS011;7840;42.702;23.296;2022-11-14T15:36:06;87.83;;;58.10;;
15476;SDS011;7840;42.702;23.296;2022-11-14T15:38:36;92.17;;;59.27;;
15476;SDS011;7840;42.702;23.296;2022-11-14T15:41:16;87.77;;;59.57;;
15476;SDS011;7840;42.702;23.296;2022-11-14T15:43:46;99.03;;;62.73;;
15476;SDS011;7840;42.702;23.296;2022-11-14T15:46:25;88.57;;;61.07;;
15476;SDS011;7840;42.702;23.296;2022-11-14T15:49:18;101.33;;;67.37;;
15476;SDS011;7840;42.702;23.296;2022-11-14T15:52:19;100.53;;;65.83;;
15476;SDS011;7840;42.702;23.296;2022-11-14T15:54:49;98.67;;;65.60;;
15476;SDS011;7840;42.702;23.296;2022-11-14T15:57:29;114.60;;;69.90;;
15476;SDS011;7840;42.702;23.296;2022-11-14T16:00:19;122.30;;;70.20;;
15476;SDS011;7840;42.702;23.296;2022-11-14T16:02:50;104.80;;;67.93;;
15476;SDS011;7840;42.702;23.296;2022-11-14T16:05:23;109.83;;;73.43;;
15476;SDS011;7840;42.702;23.296;2022-11-14T16:07:56;111.43;;;75.10;;
15476;SDS011;7840;42.702;23.296;2022-11-14T16:10:24;108.10;;;72.83;;
15476;SDS011;7840;42.702;23.296;2022-11-14T16:12:54;113.17;;;76.00;;
15476;SDS011;7840;42.702;23.296;2022-11-14T16:15:22;114.67;;;77.80;;
15476;SDS011;7840;42.702;23.296;2022-11-14T16:17:52;116.17;;;75.80;;
15476;SDS011;7840;42.702;23.296;2022-11-14T16:20:36;129.63;;;79.73;;
15476;SDS011;7840;42.702;23.296;2022-11-14T16:23:05;163.70;;;94.30;;
15476;SDS011;7840;42.702;23.296;2022-11-14T16:25:39;149.17;;;95.27;;
15476;SDS011;7840;42.702;23.296;2022-11-14T16:28:11;135.37;;;86.67;;
15476;SDS011;7840;42.702;23.296;2022-11-14T16:30:39;134.00;;;86.50;;
15476;SDS011;7840;42.702;23.296;2022-11-14T16:33:15;141.60;;;84.83;;
15476;SDS011;7840;42.702;23.296;2022-11-14T16:35:43;133.03;;;86.47;;
15476;SDS011;7840;42.702;23.296;2022-11-14T16:38:13;178.17;;;129.37;;
15476;SDS011;7840;42.702;23.296;2022-11-14T16:40:42;175.90;;;120.50;;
15476;SDS011;7840;42.702;23.296;2022-11-14T16:43:58;125.13;;;86.63;;
15476;SDS011;7840;42.702;23.296;2022-11-14T16:46:28;124.07;;;87.87;;
15476;SDS011;7840;42.702;23.296;2022-11-14T16:48:56;136.23;;;90.00;;
15476;SDS011;7840;42.702;23.296;2022-11-14T16:51:23;139.37;;;95.03;;